Sandlake, Wisconsin
Current Conditions -  °F | °C
As of 7:35 PM on Monday 24 Nov 2014 (Local Time) from KOEO Reporting Station
Overcast Overcast  
Wind Chill:   Ceiling: 2600
Heat Index: 20°   Visibility: 10mi
Dew Point: 14°   Wind: 12mph
Humidity: 77%   Direction: 310°NW
Pressure: 29.78"   Gusts: 17mph
Location:  45.3599°N, 92.5447°W
Report Text: KOEO 250135Z AUTO 31010G15KT 10SM OVC026 M06/M10 A2978 RMK AO2 T10651100
Loading
Personal Weather Stations






























Interactive Weather Map New forecast layout! Learn more

10-Day Weather Forecast

Advertisements
Track Severe Weather on mobile